Seboeis Plt, Maine
Current Conditions -  °F | °C
As of 9:53 AM on Thursday 30 Oct 2014 (Local Time) from KBGR Reporting Station
Few Clouds Few Clouds  
Wind Chill:   Ceiling: Unl
Heat Index:   Visibility: 10mi
Dew Point:   Wind: 6mph
Humidity: 77%   Direction: 280°W
Pressure: 29.87"   Gusts: NA
Location:  45.1976°N, 68.703°W
Report Text: KBGR 301353Z 28005KT 10SM FEW090 FEW120 09/05 A2987 RMK AO2 SLP116 T00890050
Loading
Personal Weather Stations






























Interactive Weather Map
Tropical Storm Tracking
New forecast layout! Learn more

10-Day Weather Forecast

Advertisements
Track Severe Weather on mobile